Terminal Aerodrome Forecast
Issued by NWS

Home | Current Version | Previous Version | Text Only | Print | Product List | Glossary On
Versions: 1 2 3 4 5 6 7 8 9 10 11 12 13
389
FTAK31 PAJN 271405 AAB
TAFAGY
TAF AMD
PAGY 271405Z 2714/2812 21012G18KT P6SM -RA BKN035
     FM271600 21015G25KT P6SM -RA OVC050
     FM272200 21012KT P6SM VCSH BKN050 OVC100
     FM280200 21005KT P6SM BKN070
      AMD LTD TO CLD VIS AND WIND=

USA.gov is the U.S. government's official web portal to all federal, state and local government web resources and services.